sensor_id;sensor_type;location;lat;lon;timestamp;P1;durP1;ratioP1;P2;durP2;ratioP2
28266;SDS011;15525;45.568;5.448;2023-10-19T00:00:40;22.88;;;12.38;;
28266;SDS011;15525;45.568;5.448;2023-10-19T00:03:14;22.75;;;12.35;;
28266;SDS011;15525;45.568;5.448;2023-10-19T00:05:40;21.88;;;12.20;;
28266;SDS011;15525;45.568;5.448;2023-10-19T00:08:06;24.02;;;12.35;;
28266;SDS011;15525;45.568;5.448;2023-10-19T00:10:38;21.60;;;12.50;;
28266;SDS011;15525;45.568;5.448;2023-10-19T00:13:04;18.45;;;11.38;;
28266;SDS011;15525;45.568;5.448;2023-10-19T00:15:31;22.77;;;12.55;;
28266;SDS011;15525;45.568;5.448;2023-10-19T00:17:59;19.55;;;11.48;;
28266;SDS011;15525;45.568;5.448;2023-10-19T00:20:45;22.70;;;11.45;;
28266;SDS011;15525;45.568;5.448;2023-10-19T00:23:20;22.20;;;11.60;;
28266;SDS011;15525;45.568;5.448;2023-10-19T00:26:00;21.90;;;12.23;;
28266;SDS011;15525;45.568;5.448;2023-10-19T00:28:42;17.80;;;10.57;;
28266;SDS011;15525;45.568;5.448;2023-10-19T00:31:10;19.23;;;10.15;;
28266;SDS011;15525;45.568;5.448;2023-10-19T00:33:36;16.35;;;10.57;;
28266;SDS011;15525;45.568;5.448;2023-10-19T00:36:06;16.55;;;10.00;;
28266;SDS011;15525;45.568;5.448;2023-10-19T00:38:33;18.13;;;9.45;;
28266;SDS011;15525;45.568;5.448;2023-10-19T00:41:02;14.05;;;8.98;;
28266;SDS011;15525;45.568;5.448;2023-10-19T00:43:41;13.60;;;7.43;;
28266;SDS011;15525;45.568;5.448;2023-10-19T00:46:11;10.05;;;6.15;;
28266;SDS011;15525;45.568;5.448;2023-10-19T00:49:05;16.63;;;8.67;;
28266;SDS011;15525;45.568;5.448;2023-10-19T00:51:35;14.13;;;8.50;;
28266;SDS011;15525;45.568;5.448;2023-10-19T00:54:11;13.98;;;7.60;;
28266;SDS011;15525;45.568;5.448;2023-10-19T00:59:13;13.55;;;8.00;;
28266;SDS011;15525;45.568;5.448;2023-10-19T01:01:44;13.82;;;8.35;;
28266;SDS011;15525;45.568;5.448;2023-10-19T01:04:13;13.63;;;8.93;;
28266;SDS011;15525;45.568;5.448;2023-10-19T01:06:47;11.88;;;7.80;;
28266;SDS011;15525;45.568;5.448;2023-10-19T01:09:33;11.75;;;7.45;;
28266;SDS011;15525;45.568;5.448;2023-10-19T01:12:03;13.98;;;7.63;;
28266;SDS011;15525;45.568;5.448;2023-10-19T01:17:53;16.95;;;8.32;;
28266;SDS011;15525;45.568;5.448;2023-10-19T01:20:24;14.18;;;8.85;;
28266;SDS011;15525;45.568;5.448;2023-10-19T01:22:57;13.48;;;8.10;;
28266;SDS011;15525;45.568;5.448;2023-10-19T01:25:56;12.43;;;8.05;;
28266;SDS011;15525;45.568;5.448;2023-10-19T01:28:27;14.23;;;9.05;;
28266;SDS011;15525;45.568;5.448;2023-10-19T01:31:12;14.35;;;8.32;;
28266;SDS011;15525;45.568;5.448;2023-10-19T01:33:47;13.80;;;8.25;;
28266;SDS011;15525;45.568;5.448;2023-10-19T01:36:13;12.38;;;7.80;;
28266;SDS011;15525;45.568;5.448;2023-10-19T01:38:39;11.93;;;7.57;;
28266;SDS011;15525;45.568;5.448;2023-10-19T01:41:06;12.05;;;7.07;;
28266;SDS011;15525;45.568;5.448;2023-10-19T01:43:45;11.43;;;6.97;;
28266;SDS011;15525;45.568;5.448;2023-10-19T01:46:13;11.75;;;6.93;;
28266;SDS011;15525;45.568;5.448;2023-10-19T01:48:50;11.68;;;7.25;;
28266;SDS011;15525;45.568;5.448;2023-10-19T01:51:24;12.00;;;7.03;;
28266;SDS011;15525;45.568;5.448;2023-10-19T01:53:52;12.20;;;7.32;;
28266;SDS011;15525;45.568;5.448;2023-10-19T01:56:18;10.27;;;6.93;;
28266;SDS011;15525;45.568;5.448;2023-10-19T01:58:44;11.27;;;6.55;;
28266;SDS011;15525;45.568;5.448;2023-10-19T02:01:15;9.48;;;6.50;;
28266;SDS011;15525;45.568;5.448;2023-10-19T02:03:53;9.88;;;6.78;;
28266;SDS011;15525;45.568;5.448;2023-10-19T02:06:26;10.40;;;6.13;;
28266;SDS011;15525;45.568;5.448;2023-10-19T02:09:08;11.75;;;6.05;;
28266;SDS011;15525;45.568;5.448;2023-10-19T02:11:42;8.57;;;5.70;;
28266;SDS011;15525;45.568;5.448;2023-10-19T02:14:08;9.80;;;6.32;;
28266;SDS011;15525;45.568;5.448;2023-10-19T02:16:43;11.15;;;6.22;;
28266;SDS011;15525;45.568;5.448;2023-10-19T02:19:10;11.65;;;6.60;;
28266;SDS011;15525;45.568;5.448;2023-10-19T02:21:36;9.63;;;6.25;;
28266;SDS011;15525;45.568;5.448;2023-10-19T02:24:08;9.45;;;6.38;;
28266;SDS011;15525;45.568;5.448;2023-10-19T02:29:08;8.38;;;5.60;;
28266;SDS011;15525;45.568;5.448;2023-10-19T02:31:35;8.65;;;6.03;;
28266;SDS011;15525;45.568;5.448;2023-10-19T02:34:05;10.60;;;5.95;;
28266;SDS011;15525;45.568;5.448;2023-10-19T02:36:35;8.77;;;5.40;;
28266;SDS011;15525;45.568;5.448;2023-10-19T02:39:06;7.57;;;5.47;;
28266;SDS011;15525;45.568;5.448;2023-10-19T02:41:34;9.50;;;5.75;;
28266;SDS011;15525;45.568;5.448;2023-10-19T02:44:04;8.52;;;5.60;;
28266;SDS011;15525;45.568;5.448;2023-10-19T02:46:34;10.57;;;6.15;;
28266;SDS011;15525;45.568;5.448;2023-10-19T02:49:04;11.82;;;6.20;;
28266;SDS011;15525;45.568;5.448;2023-10-19T02:51:36;10.65;;;6.25;;
28266;SDS011;15525;45.568;5.448;2023-10-19T02:54:02;12.85;;;6.88;;
28266;SDS011;15525;45.568;5.448;2023-10-19T02:56:28;10.88;;;6.43;;
28266;SDS011;15525;45.568;5.448;2023-10-19T02:58:56;9.55;;;6.47;;
28266;SDS011;15525;45.568;5.448;2023-10-19T03:01:31;11.50;;;7.07;;
28266;SDS011;15525;45.568;5.448;2023-10-19T03:03:58;10.27;;;6.90;;
28266;SDS011;15525;45.568;5.448;2023-10-19T03:06:30;11.43;;;7.10;;
28266;SDS011;15525;45.568;5.448;2023-10-19T03:08:59;11.63;;;6.97;;
28266;SDS011;15525;45.568;5.448;2023-10-19T03:11:30;11.25;;;7.30;;
28266;SDS011;15525;45.568;5.448;2023-10-19T03:13:59;12.23;;;7.55;;
28266;SDS011;15525;45.568;5.448;2023-10-19T03:16:26;13.27;;;7.90;;
28266;SDS011;15525;45.568;5.448;2023-10-19T03:18:55;12.90;;;7.78;;
28266;SDS011;15525;45.568;5.448;2023-10-19T03:21:21;12.48;;;8.02;;
28266;SDS011;15525;45.568;5.448;2023-10-19T03:23:52;11.57;;;8.15;;
28266;SDS011;15525;45.568;5.448;2023-10-19T03:26:21;14.60;;;8.52;;
28266;SDS011;15525;45.568;5.448;2023-10-19T03:28:51;11.07;;;7.85;;
28266;SDS011;15525;45.568;5.448;2023-10-19T03:31:27;16.58;;;8.40;;
28266;SDS011;15525;45.568;5.448;2023-10-19T03:33:53;15.18;;;8.95;;
28266;SDS011;15525;45.568;5.448;2023-10-19T03:36:24;15.48;;;8.68;;
28266;SDS011;15525;45.568;5.448;2023-10-19T03:38:51;15.07;;;8.88;;
28266;SDS011;15525;45.568;5.448;2023-10-19T03:41:18;13.82;;;9.30;;
28266;SDS011;15525;45.568;5.448;2023-10-19T03:43:49;14.25;;;9.95;;
28266;SDS011;15525;45.568;5.448;2023-10-19T03:46:16;18.80;;;10.43;;
28266;SDS011;15525;45.568;5.448;2023-10-19T03:48:56;17.23;;;9.75;;
28266;SDS011;15525;45.568;5.448;2023-10-19T03:51:29;14.43;;;8.85;;
28266;SDS011;15525;45.568;5.448;2023-10-19T03:54:14;17.33;;;10.20;;
28266;SDS011;15525;45.568;5.448;2023-10-19T03:56:49;14.80;;;9.45;;
28266;SDS011;15525;45.568;5.448;2023-10-19T03:59:15;16.70;;;9.70;;
28266;SDS011;15525;45.568;5.448;2023-10-19T04:01:42;12.90;;;9.02;;
28266;SDS011;15525;45.568;5.448;2023-10-19T04:04:09;14.13;;;9.35;;
28266;SDS011;15525;45.568;5.448;2023-10-19T04:06:34;14.32;;;9.32;;
28266;SDS011;15525;45.568;5.448;2023-10-19T04:09:00;16.45;;;10.10;;
28266;SDS011;15525;45.568;5.448;2023-10-19T04:11:26;17.77;;;9.73;;
28266;SDS011;15525;45.568;5.448;2023-10-19T04:13:58;20.02;;;9.85;;
28266;SDS011;15525;45.568;5.448;2023-10-19T04:16:29;12.40;;;8.55;;
28266;SDS011;15525;45.568;5.448;2023-10-19T04:18:56;17.17;;;9.73;;
28266;SDS011;15525;45.568;5.448;2023-10-19T04:21:23;14.68;;;8.55;;
28266;SDS011;15525;45.568;5.448;2023-10-19T04:23:48;15.65;;;9.90;;
28266;SDS011;15525;45.568;5.448;2023-10-19T04:26:13;17.35;;;9.77;;
28266;SDS011;15525;45.568;5.448;2023-10-19T04:28:43;15.55;;;9.80;;
28266;SDS011;15525;45.568;5.448;2023-10-19T04:31:16;15.52;;;9.68;;
28266;SDS011;15525;45.568;5.448;2023-10-19T04:33:43;16.23;;;10.40;;
28266;SDS011;15525;45.568;5.448;2023-10-19T04:36:11;18.55;;;9.60;;
28266;SDS011;15525;45.568;5.448;2023-10-19T04:38:37;12.80;;;8.88;;
28266;SDS011;15525;45.568;5.448;2023-10-19T04:41:07;15.65;;;9.38;;
28266;SDS011;15525;45.568;5.448;2023-10-19T04:43:36;15.80;;;9.73;;
28266;SDS011;15525;45.568;5.448;2023-10-19T04:46:11;14.85;;;8.35;;
28266;SDS011;15525;45.568;5.448;2023-10-19T04:48:40;15.98;;;8.98;;
28266;SDS011;15525;45.568;5.448;2023-10-19T04:51:07;14.25;;;9.05;;
28266;SDS011;15525;45.568;5.448;2023-10-19T04:53:34;17.15;;;10.20;;
28266;SDS011;15525;45.568;5.448;2023-10-19T04:55:59;15.93;;;10.40;;
28266;SDS011;15525;45.568;5.448;2023-10-19T04:58:29;17.02;;;9.00;;
28266;SDS011;15525;45.568;5.448;2023-10-19T05:00:54;15.02;;;8.73;;
28266;SDS011;15525;45.568;5.448;2023-10-19T05:03:20;15.02;;;9.68;;
28266;SDS011;15525;45.568;5.448;2023-10-19T05:05:46;15.63;;;9.15;;
28266;SDS011;15525;45.568;5.448;2023-10-19T05:08:12;15.63;;;9.98;;
28266;SDS011;15525;45.568;5.448;2023-10-19T05:10:37;17.17;;;9.40;;
28266;SDS011;15525;45.568;5.448;2023-10-19T05:13:03;13.57;;;8.30;;
28266;SDS011;15525;45.568;5.448;2023-10-19T05:15:29;14.55;;;8.75;;
28266;SDS011;15525;45.568;5.448;2023-10-19T05:17:54;11.30;;;7.93;;
28266;SDS011;15525;45.568;5.448;2023-10-19T05:20:20;12.60;;;7.95;;
28266;SDS011;15525;45.568;5.448;2023-10-19T05:22:46;13.05;;;7.85;;
28266;SDS011;15525;45.568;5.448;2023-10-19T05:25:12;15.35;;;8.32;;
28266;SDS011;15525;45.568;5.448;2023-10-19T05:27:38;12.02;;;7.57;;
28266;SDS011;15525;45.568;5.448;2023-10-19T05:30:04;10.73;;;6.50;;
28266;SDS011;15525;45.568;5.448;2023-10-19T05:32:30;10.02;;;7.10;;
28266;SDS011;15525;45.568;5.448;2023-10-19T05:34:56;12.73;;;6.93;;
28266;SDS011;15525;45.568;5.448;2023-10-19T05:37:22;8.07;;;6.00;;
28266;SDS011;15525;45.568;5.448;2023-10-19T05:39:48;7.45;;;5.55;;
28266;SDS011;15525;45.568;5.448;2023-10-19T05:42:16;11.48;;;6.30;;
28266;SDS011;15525;45.568;5.448;2023-10-19T05:44:42;9.68;;;6.22;;
28266;SDS011;15525;45.568;5.448;2023-10-19T05:47:08;8.70;;;5.05;;
28266;SDS011;15525;45.568;5.448;2023-10-19T05:49:33;8.40;;;4.93;;
28266;SDS011;15525;45.568;5.448;2023-10-19T05:51:59;5.80;;;4.80;;
28266;SDS011;15525;45.568;5.448;2023-10-19T05:54:24;5.95;;;4.55;;
28266;SDS011;15525;45.568;5.448;2023-10-19T05:56:50;7.15;;;4.70;;
28266;SDS011;15525;45.568;5.448;2023-10-19T05:59:16;7.57;;;4.63;;
28266;SDS011;15525;45.568;5.448;2023-10-19T06:01:42;5.30;;;4.32;;
28266;SDS011;15525;45.568;5.448;2023-10-19T06:04:11;6.72;;;4.22;;
28266;SDS011;15525;45.568;5.448;2023-10-19T06:06:37;7.15;;;4.07;;
28266;SDS011;15525;45.568;5.448;2023-10-19T06:09:04;5.65;;;4.05;;
28266;SDS011;15525;45.568;5.448;2023-10-19T06:11:33;6.80;;;4.47;;
28266;SDS011;15525;45.568;5.448;2023-10-19T06:14:01;6.00;;;4.22;;
28266;SDS011;15525;45.568;5.448;2023-10-19T06:16:27;5.82;;;4.60;;
28266;SDS011;15525;45.568;5.448;2023-10-19T06:18:53;7.82;;;4.30;;
28266;SDS011;15525;45.568;5.448;2023-10-19T06:21:18;6.95;;;4.95;;
28266;SDS011;15525;45.568;5.448;2023-10-19T06:23:44;6.68;;;5.35;;
28266;SDS011;15525;45.568;5.448;2023-10-19T06:26:10;6.68;;;5.30;;
28266;SDS011;15525;45.568;5.448;2023-10-19T06:28:40;10.25;;;5.85;;
28266;SDS011;15525;45.568;5.448;2023-10-19T06:31:06;9.75;;;5.82;;
28266;SDS011;15525;45.568;5.448;2023-10-19T06:33:32;9.02;;;6.53;;
28266;SDS011;15525;45.568;5.448;2023-10-19T06:36:01;9.93;;;6.72;;
28266;SDS011;15525;45.568;5.448;2023-10-19T06:38:28;8.38;;;6.55;;
28266;SDS011;15525;45.568;5.448;2023-10-19T06:40:54;8.23;;;6.18;;
28266;SDS011;15525;45.568;5.448;2023-10-19T06:43:21;9.82;;;7.05;;
28266;SDS011;15525;45.568;5.448;2023-10-19T06:45:49;10.50;;;6.93;;
28266;SDS011;15525;45.568;5.448;2023-10-19T06:48:15;11.35;;;7.13;;
28266;SDS011;15525;45.568;5.448;2023-10-19T06:50:40;11.63;;;6.95;;
28266;SDS011;15525;45.568;5.448;2023-10-19T06:53:06;11.13;;;7.68;;
28266;SDS011;15525;45.568;5.448;2023-10-19T06:55:31;10.18;;;7.20;;
28266;SDS011;15525;45.568;5.448;2023-10-19T06:57:58;10.32;;;6.97;;
28266;SDS011;15525;45.568;5.448;2023-10-19T07:00:24;8.98;;;6.65;;
28266;SDS011;15525;45.568;5.448;2023-10-19T07:02:54;9.73;;;6.20;;
28266;SDS011;15525;45.568;5.448;2023-10-19T07:05:22;11.98;;;6.30;;
28266;SDS011;15525;45.568;5.448;2023-10-19T07:07:55;11.93;;;6.85;;
28266;SDS011;15525;45.568;5.448;2023-10-19T07:10:21;9.00;;;6.53;;
28266;SDS011;15525;45.568;5.448;2023-10-19T07:12:50;9.43;;;6.80;;
28266;SDS011;15525;45.568;5.448;2023-10-19T07:15:16;8.38;;;5.95;;
28266;SDS011;15525;45.568;5.448;2023-10-19T07:17:47;9.18;;;6.13;;
28266;SDS011;15525;45.568;5.448;2023-10-19T07:20:14;9.82;;;6.38;;
28266;SDS011;15525;45.568;5.448;2023-10-19T07:23:01;12.52;;;7.03;;
28266;SDS011;15525;45.568;5.448;2023-10-19T07:25:49;8.30;;;6.10;;
28266;SDS011;15525;45.568;5.448;2023-10-19T07:28:19;11.65;;;6.68;;
28266;SDS011;15525;45.568;5.448;2023-10-19T07:30:45;10.50;;;7.25;;
28266;SDS011;15525;45.568;5.448;2023-10-19T07:33:11;10.07;;;6.95;;
28266;SDS011;15525;45.568;5.448;2023-10-19T07:35:45;12.70;;;7.20;;
28266;SDS011;15525;45.568;5.448;2023-10-19T07:38:15;10.15;;;6.70;;
28266;SDS011;15525;45.568;5.448;2023-10-19T07:40:41;9.82;;;6.38;;
28266;SDS011;15525;45.568;5.448;2023-10-19T07:43:08;8.55;;;5.60;;
28266;SDS011;15525;45.568;5.448;2023-10-19T07:45:35;9.18;;;6.18;;
28266;SDS011;15525;45.568;5.448;2023-10-19T07:48:01;11.52;;;6.15;;
28266;SDS011;15525;45.568;5.448;2023-10-19T07:50:31;9.20;;;6.35;;
28266;SDS011;15525;45.568;5.448;2023-10-19T07:52:58;9.85;;;6.50;;
28266;SDS011;15525;45.568;5.448;2023-10-19T07:55:23;12.10;;;8.10;;
28266;SDS011;15525;45.568;5.448;2023-10-19T07:57:49;13.18;;;8.07;;
28266;SDS011;15525;45.568;5.448;2023-10-19T08:00:16;12.43;;;8.15;;
28266;SDS011;15525;45.568;5.448;2023-10-19T08:02:43;13.10;;;8.05;;
28266;SDS011;15525;45.568;5.448;2023-10-19T08:05:12;13.45;;;8.45;;
28266;SDS011;15525;45.568;5.448;2023-10-19T08:07:44;13.45;;;8.57;;
28266;SDS011;15525;45.568;5.448;2023-10-19T08:10:15;10.95;;;8.13;;
28266;SDS011;15525;45.568;5.448;2023-10-19T08:12:42;13.45;;;8.20;;
28266;SDS011;15525;45.568;5.448;2023-10-19T08:15:12;9.40;;;6.60;;
28266;SDS011;15525;45.568;5.448;2023-10-19T08:17:39;10.18;;;7.57;;
28266;SDS011;15525;45.568;5.448;2023-10-19T08:20:08;14.15;;;8.85;;
28266;SDS011;15525;45.568;5.448;2023-10-19T08:22:41;13.15;;;8.40;;
28266;SDS011;15525;45.568;5.448;2023-10-19T08:25:07;12.85;;;8.15;;
28266;SDS011;15525;45.568;5.448;2023-10-19T08:27:39;13.70;;;7.78;;
28266;SDS011;15525;45.568;5.448;2023-10-19T08:30:06;11.85;;;7.50;;
28266;SDS011;15525;45.568;5.448;2023-10-19T08:32:34;12.40;;;6.55;;
28266;SDS011;15525;45.568;5.448;2023-10-19T08:35:01;11.02;;;6.97;;
28266;SDS011;15525;45.568;5.448;2023-10-19T08:37:27;10.13;;;7.18;;
28266;SDS011;15525;45.568;5.448;2023-10-19T08:39:53;10.38;;;7.57;;
28266;SDS011;15525;45.568;5.448;2023-10-19T08:42:18;10.40;;;7.13;;
28266;SDS011;15525;45.568;5.448;2023-10-19T08:44:45;11.15;;;7.63;;
28266;SDS011;15525;45.568;5.448;2023-10-19T08:47:11;14.07;;;7.82;;
28266;SDS011;15525;45.568;5.448;2023-10-19T08:49:37;9.85;;;7.15;;
28266;SDS011;15525;45.568;5.448;2023-10-19T08:52:03;11.57;;;7.13;;
28266;SDS011;15525;45.568;5.448;2023-10-19T08:54:31;9.60;;;7.43;;
28266;SDS011;15525;45.568;5.448;2023-10-19T08:56:58;9.65;;;6.75;;
28266;SDS011;15525;45.568;5.448;2023-10-19T08:59:24;9.80;;;6.72;;
28266;SDS011;15525;45.568;5.448;2023-10-19T09:01:50;12.85;;;6.28;;
28266;SDS011;15525;45.568;5.448;2023-10-19T09:04:15;10.43;;;6.55;;
28266;SDS011;15525;45.568;5.448;2023-10-19T09:06:43;9.35;;;7.18;;
28266;SDS011;15525;45.568;5.448;2023-10-19T09:09:10;9.43;;;7.35;;
28266;SDS011;15525;45.568;5.448;2023-10-19T09:11:44;10.13;;;7.35;;
28266;SDS011;15525;45.568;5.448;2023-10-19T09:14:11;9.13;;;7.07;;
28266;SDS011;15525;45.568;5.448;2023-10-19T09:16:38;11.75;;;7.60;;
28266;SDS011;15525;45.568;5.448;2023-10-19T09:19:18;11.07;;;8.85;;
28266;SDS011;15525;45.568;5.448;2023-10-19T09:21:45;12.40;;;8.77;;
28266;SDS011;15525;45.568;5.448;2023-10-19T09:24:11;12.57;;;8.77;;
28266;SDS011;15525;45.568;5.448;2023-10-19T09:26:36;12.35;;;8.77;;
28266;SDS011;15525;45.568;5.448;2023-10-19T09:29:02;13.23;;;8.50;;
28266;SDS011;15525;45.568;5.448;2023-10-19T09:31:28;12.35;;;9.15;;
28266;SDS011;15525;45.568;5.448;2023-10-19T09:33:55;12.55;;;8.93;;
28266;SDS011;15525;45.568;5.448;2023-10-19T09:36:22;10.55;;;8.23;;
28266;SDS011;15525;45.568;5.448;2023-10-19T09:38:51;11.27;;;8.20;;
28266;SDS011;15525;45.568;5.448;2023-10-19T09:41:17;11.25;;;8.18;;
28266;SDS011;15525;45.568;5.448;2023-10-19T09:43:48;10.30;;;7.82;;
28266;SDS011;15525;45.568;5.448;2023-10-19T09:46:21;11.20;;;8.30;;
28266;SDS011;15525;45.568;5.448;2023-10-19T09:48:49;12.70;;;9.07;;
28266;SDS011;15525;45.568;5.448;2023-10-19T09:51:15;13.52;;;8.20;;
28266;SDS011;15525;45.568;5.448;2023-10-19T09:53:43;13.60;;;8.70;;
28266;SDS011;15525;45.568;5.448;2023-10-19T09:56:12;12.48;;;8.90;;
28266;SDS011;15525;45.568;5.448;2023-10-19T10:01:19;11.63;;;8.07;;
28266;SDS011;15525;45.568;5.448;2023-10-19T10:03:47;11.65;;;8.30;;
28266;SDS011;15525;45.568;5.448;2023-10-19T10:07:02;10.95;;;7.78;;
28266;SDS011;15525;45.568;5.448;2023-10-19T10:09:20;9.48;;;7.82;;
28266;SDS011;15525;45.568;5.448;2023-10-19T10:11:49;10.82;;;7.38;;
28266;SDS011;15525;45.568;5.448;2023-10-19T10:14:36;8.75;;;6.70;;
28266;SDS011;15525;45.568;5.448;2023-10-19T10:17:02;11.50;;;7.20;;
28266;SDS011;15525;45.568;5.448;2023-10-19T10:19:27;9.40;;;7.25;;
28266;SDS011;15525;45.568;5.448;2023-10-19T10:22:03;10.30;;;7.18;;
28266;SDS011;15525;45.568;5.448;2023-10-19T10:24:39;10.38;;;8.13;;
28266;SDS011;15525;45.568;5.448;2023-10-19T10:27:08;9.60;;;7.85;;
28266;SDS011;15525;45.568;5.448;2023-10-19T10:29:35;11.13;;;7.70;;
28266;SDS011;15525;45.568;5.448;2023-10-19T10:32:01;9.98;;;7.65;;
28266;SDS011;15525;45.568;5.448;2023-10-19T10:37:02;11.05;;;8.02;;
28266;SDS011;15525;45.568;5.448;2023-10-19T10:39:29;10.10;;;7.97;;
28266;SDS011;15525;45.568;5.448;2023-10-19T10:41:59;11.55;;;7.65;;
28266;SDS011;15525;45.568;5.448;2023-10-19T10:47:15;9.82;;;7.80;;
28266;SDS011;15525;45.568;5.448;2023-10-19T10:49:52;11.60;;;8.35;;
28266;SDS011;15525;45.568;5.448;2023-10-19T10:52:25;11.15;;;7.85;;
28266;SDS011;15525;45.568;5.448;2023-10-19T10:55:10;13.95;;;7.72;;
28266;SDS011;15525;45.568;5.448;2023-10-19T10:57:38;12.82;;;9.00;;
28266;SDS011;15525;45.568;5.448;2023-10-19T11:00:05;13.80;;;8.95;;
28266;SDS011;15525;45.568;5.448;2023-10-19T11:02:37;13.45;;;8.93;;
28266;SDS011;15525;45.568;5.448;2023-10-19T11:05:08;13.18;;;8.40;;
28266;SDS011;15525;45.568;5.448;2023-10-19T11:07:37;10.13;;;8.32;;
28266;SDS011;15525;45.568;5.448;2023-10-19T11:10:06;10.57;;;7.75;;
28266;SDS011;15525;45.568;5.448;2023-10-19T11:12:35;9.57;;;7.63;;
28266;SDS011;15525;45.568;5.448;2023-10-19T11:15:01;12.13;;;7.50;;
28266;SDS011;15525;45.568;5.448;2023-10-19T11:17:41;12.27;;;7.90;;
28266;SDS011;15525;45.568;5.448;2023-10-19T11:20:08;11.07;;;7.93;;
28266;SDS011;15525;45.568;5.448;2023-10-19T11:22:44;11.13;;;7.90;;
28266;SDS011;15525;45.568;5.448;2023-10-19T11:25:17;11.38;;;7.28;;
28266;SDS011;15525;45.568;5.448;2023-10-19T11:27:46;10.10;;;7.15;;
28266;SDS011;15525;45.568;5.448;2023-10-19T11:30:12;10.40;;;7.65;;
28266;SDS011;15525;45.568;5.448;2023-10-19T11:32:38;7.28;;;6.35;;
28266;SDS011;15525;45.568;5.448;2023-10-19T11:35:04;8.75;;;6.60;;
28266;SDS011;15525;45.568;5.448;2023-10-19T11:37:45;9.35;;;6.30;;
28266;SDS011;15525;45.568;5.448;2023-10-19T11:40:11;7.78;;;6.35;;
28266;SDS011;15525;45.568;5.448;2023-10-19T11:42:37;9.85;;;6.25;;
28266;SDS011;15525;45.568;5.448;2023-10-19T11:45:02;8.83;;;6.20;;
28266;SDS011;15525;45.568;5.448;2023-10-19T11:47:28;8.48;;;5.65;;
28266;SDS011;15525;45.568;5.448;2023-10-19T11:49:54;7.90;;;6.22;;
28266;SDS011;15525;45.568;5.448;2023-10-19T11:52:19;8.13;;;5.97;;
28266;SDS011;15525;45.568;5.448;2023-10-19T11:54:45;5.57;;;5.03;;
28266;SDS011;15525;45.568;5.448;2023-10-19T11:57:10;8.85;;;5.28;;
28266;SDS011;15525;45.568;5.448;2023-10-19T11:59:35;6.68;;;4.93;;
28266;SDS011;15525;45.568;5.448;2023-10-19T12:02:01;9.13;;;5.10;;
28266;SDS011;15525;45.568;5.448;2023-10-19T12:04:28;7.47;;;5.07;;
28266;SDS011;15525;45.568;5.448;2023-10-19T12:06:54;7.18;;;5.15;;
28266;SDS011;15525;45.568;5.448;2023-10-19T12:09:20;9.13;;;5.22;;
28266;SDS011;15525;45.568;5.448;2023-10-19T12:11:49;8.98;;;5.88;;
28266;SDS011;15525;45.568;5.448;2023-10-19T12:14:18;9.57;;;5.95;;
28266;SDS011;15525;45.568;5.448;2023-10-19T12:16:43;8.68;;;5.20;;
28266;SDS011;15525;45.568;5.448;2023-10-19T12:19:10;9.80;;;6.25;;
28266;SDS011;15525;45.568;5.448;2023-10-19T12:21:35;8.23;;;6.60;;
28266;SDS011;15525;45.568;5.448;2023-10-19T12:24:03;10.23;;;7.07;;
28266;SDS011;15525;45.568;5.448;2023-10-19T12:26:29;9.13;;;6.82;;
28266;SDS011;15525;45.568;5.448;2023-10-19T12:28:56;10.30;;;6.63;;
28266;SDS011;15525;45.568;5.448;2023-10-19T12:31:21;10.07;;;6.38;;
28266;SDS011;15525;45.568;5.448;2023-10-19T12:33:48;8.25;;;6.45;;
28266;SDS011;15525;45.568;5.448;2023-10-19T12:36:13;7.95;;;6.32;;
28266;SDS011;15525;45.568;5.448;2023-10-19T12:38:45;9.50;;;6.93;;
28266;SDS011;15525;45.568;5.448;2023-10-19T12:41:10;9.73;;;6.72;;
28266;SDS011;15525;45.568;5.448;2023-10-19T12:43:36;13.05;;;6.85;;
28266;SDS011;15525;45.568;5.448;2023-10-19T12:46:01;9.95;;;6.40;;
28266;SDS011;15525;45.568;5.448;2023-10-19T12:48:27;7.95;;;5.82;;
28266;SDS011;15525;45.568;5.448;2023-10-19T12:50:58;9.48;;;7.25;;
28266;SDS011;15525;45.568;5.448;2023-10-19T12:53:24;10.07;;;6.78;;
28266;SDS011;15525;45.568;5.448;2023-10-19T12:55:50;10.70;;;7.00;;
28266;SDS011;15525;45.568;5.448;2023-10-19T12:58:17;9.27;;;7.25;;
28266;SDS011;15525;45.568;5.448;2023-10-19T13:00:45;10.23;;;7.35;;
28266;SDS011;15525;45.568;5.448;2023-10-19T13:03:12;11.68;;;7.15;;
28266;SDS011;15525;45.568;5.448;2023-10-19T13:05:42;11.02;;;6.93;;
28266;SDS011;15525;45.568;5.448;2023-10-19T13:08:13;9.63;;;6.38;;
28266;SDS011;15525;45.568;5.448;2023-10-19T13:10:39;10.23;;;6.32;;
28266;SDS011;15525;45.568;5.448;2023-10-19T13:13:07;10.38;;;6.65;;
28266;SDS011;15525;45.568;5.448;2023-10-19T13:15:36;10.73;;;7.05;;
28266;SDS011;15525;45.568;5.448;2023-10-19T13:18:03;9.10;;;6.50;;
28266;SDS011;15525;45.568;5.448;2023-10-19T13:20:31;11.75;;;6.75;;
28266;SDS011;15525;45.568;5.448;2023-10-19T13:23:06;11.88;;;7.57;;
28266;SDS011;15525;45.568;5.448;2023-10-19T13:25:36;12.65;;;7.50;;
28266;SDS011;15525;45.568;5.448;2023-10-19T13:28:18;10.07;;;7.30;;
28266;SDS011;15525;45.568;5.448;2023-10-19T13:33:14;10.68;;;7.15;;
28266;SDS011;15525;45.568;5.448;2023-10-19T13:35:41;9.55;;;6.55;;
28266;SDS011;15525;45.568;5.448;2023-10-19T13:38:08;8.90;;;7.20;;
28266;SDS011;15525;45.568;5.448;2023-10-19T13:40:34;11.60;;;7.75;;
28266;SDS011;15525;45.568;5.448;2023-10-19T13:43:01;10.00;;;6.70;;
28266;SDS011;15525;45.568;5.448;2023-10-19T13:45:30;6.35;;;4.45;;
28266;SDS011;15525;45.568;5.448;2023-10-19T13:47:57;6.22;;;4.38;;
28266;SDS011;15525;45.568;5.448;2023-10-19T13:50:23;6.90;;;4.35;;
28266;SDS011;15525;45.568;5.448;2023-10-19T13:52:54;6.22;;;3.00;;
28266;SDS011;15525;45.568;5.448;2023-10-19T13:55:21;7.35;;;2.72;;
28266;SDS011;15525;45.568;5.448;2023-10-19T13:57:48;9.35;;;2.80;;
28266;SDS011;15525;45.568;5.448;2023-10-19T14:00:15;4.38;;;2.38;;
28266;SDS011;15525;45.568;5.448;2023-10-19T14:02:48;3.92;;;1.90;;
28266;SDS011;15525;45.568;5.448;2023-10-19T14:05:14;4.05;;;2.22;;
28266;SDS011;15525;45.568;5.448;2023-10-19T14:07:39;5.82;;;2.20;;
28266;SDS011;15525;45.568;5.448;2023-10-19T14:10:05;3.30;;;2.10;;
28266;SDS011;15525;45.568;5.448;2023-10-19T14:12:32;5.43;;;2.00;;
28266;SDS011;15525;45.568;5.448;2023-10-19T14:14:58;4.43;;;2.63;;
28266;SDS011;15525;45.568;5.448;2023-10-19T14:17:23;4.03;;;2.35;;
28266;SDS011;15525;45.568;5.448;2023-10-19T14:19:50;4.07;;;2.30;;
28266;SDS011;15525;45.568;5.448;2023-10-19T14:22:16;4.88;;;2.63;;
28266;SDS011;15525;45.568;5.448;2023-10-19T14:24:42;4.68;;;3.00;;
28266;SDS011;15525;45.568;5.448;2023-10-19T14:27:08;11.77;;;6.43;;
28266;SDS011;15525;45.568;5.448;2023-10-19T14:29:34;13.07;;;6.63;;
28266;SDS011;15525;45.568;5.448;2023-10-19T14:31:59;15.57;;;7.25;;
28266;SDS011;15525;45.568;5.448;2023-10-19T14:34:25;11.48;;;5.30;;
28266;SDS011;15525;45.568;5.448;2023-10-19T14:36:52;12.25;;;5.25;;
28266;SDS011;15525;45.568;5.448;2023-10-19T14:39:18;5.65;;;3.35;;
28266;SDS011;15525;45.568;5.448;2023-10-19T14:41:45;4.40;;;2.80;;
28266;SDS011;15525;45.568;5.448;2023-10-19T14:44:11;5.72;;;3.17;;
28266;SDS011;15525;45.568;5.448;2023-10-19T14:46:36;7.22;;;3.13;;
28266;SDS011;15525;45.568;5.448;2023-10-19T14:49:01;9.45;;;3.50;;
28266;SDS011;15525;45.568;5.448;2023-10-19T14:51:27;4.43;;;2.90;;
28266;SDS011;15525;45.568;5.448;2023-10-19T14:53:52;6.97;;;4.20;;
28266;SDS011;15525;45.568;5.448;2023-10-19T14:56:18;7.05;;;4.68;;
28266;SDS011;15525;45.568;5.448;2023-10-19T14:58:44;6.10;;;3.55;;
28266;SDS011;15525;45.568;5.448;2023-10-19T15:01:09;7.63;;;3.35;;
28266;SDS011;15525;45.568;5.448;2023-10-19T15:03:41;8.70;;;3.38;;
28266;SDS011;15525;45.568;5.448;2023-10-19T15:06:07;4.20;;;3.15;;